createdAt,value
2022-10-02T00:00:19.095Z,0
2022-10-02T00:01:19.119Z,0
2022-10-02T00:02:19.098Z,0
2022-10-02T00:03:19.131Z,0
2022-10-02T00:04:19.165Z,0
2022-10-02T00:05:19.120Z,0
2022-10-02T00:06:19.092Z,0
2022-10-02T00:07:19.123Z,0
2022-10-02T00:08:23.394Z,0
2022-10-02T00:09:19.232Z,0
2022-10-02T00:10:19.085Z,0
2022-10-02T00:11:19.103Z,0
2022-10-02T00:12:19.105Z,0
2022-10-02T00:13:19.099Z,0
2022-10-02T00:14:19.093Z,0
2022-10-02T00:15:19.109Z,0
2022-10-02T00:16:19.129Z,0
2022-10-02T00:17:19.094Z,0
2022-10-02T00:18:19.123Z,0
2022-10-02T00:19:19.120Z,0
2022-10-02T00:20:19.115Z,0
2022-10-02T00:21:19.114Z,0
2022-10-02T00:22:19.087Z,0
2022-10-02T00:23:19.095Z,0
2022-10-02T00:24:19.096Z,0
2022-10-02T00:25:19.087Z,0
2022-10-02T00:26:19.124Z,0
2022-10-02T00:27:19.128Z,0
2022-10-02T00:28:19.131Z,0
2022-10-02T00:29:19.213Z,0
2022-10-02T00:30:19.098Z,0
2022-10-02T00:31:19.529Z,0
2022-10-02T00:32:19.739Z,0
2022-10-02T00:33:19.083Z,0
2022-10-02T00:34:19.314Z,0
2022-10-02T00:35:19.095Z,0
2022-10-02T00:36:19.096Z,0
2022-10-02T00:37:19.095Z,0
2022-10-02T00:38:19.087Z,0
2022-10-02T00:39:19.089Z,0
2022-10-02T00:40:19.104Z,0
2022-10-02T00:41:19.119Z,0
2022-10-02T00:42:19.100Z,0
2022-10-02T00:43:19.344Z,0
2022-10-02T00:44:19.106Z,0
2022-10-02T00:45:19.100Z,0
2022-10-02T00:46:19.214Z,0
2022-10-02T00:47:19.090Z,0
2022-10-02T00:48:19.094Z,0
2022-10-02T00:49:19.101Z,0
2022-10-02T00:50:19.102Z,0
2022-10-02T00:51:19.091Z,0
2022-10-02T00:52:19.122Z,0
2022-10-02T00:53:19.113Z,0
2022-10-02T00:54:19.090Z,0
2022-10-02T00:55:19.117Z,0
2022-10-02T00:56:19.108Z,0
2022-10-02T00:57:19.118Z,0
2022-10-02T00:58:19.095Z,0
2022-10-02T00:59:19.095Z,0
2022-10-02T01:00:19.101Z,0
2022-10-02T01:01:19.161Z,0
2022-10-02T01:02:19.204Z,0
2022-10-02T01:03:19.106Z,0
2022-10-02T01:04:19.191Z,0
2022-10-02T01:05:19.104Z,0
2022-10-02T01:06:19.105Z,0
2022-10-02T01:07:19.079Z,0
2022-10-02T01:08:19.090Z,0
2022-10-02T01:09:19.096Z,0
2022-10-02T01:10:19.106Z,0
2022-10-02T01:11:19.097Z,0
2022-10-02T01:12:19.101Z,0
2022-10-02T01:13:19.122Z,0
2022-10-02T01:14:19.117Z,0
2022-10-02T01:15:19.317Z,0
2022-10-02T01:16:19.137Z,0
2022-10-02T01:17:19.090Z,0
2022-10-02T01:18:19.091Z,0
2022-10-02T01:19:19.093Z,0
2022-10-02T01:20:19.086Z,0
2022-10-02T01:21:19.090Z,0
2022-10-02T01:22:19.094Z,0
2022-10-02T01:23:19.086Z,0
2022-10-02T01:24:19.279Z,0
2022-10-02T01:25:19.740Z,0
2022-10-02T01:26:20.122Z,0
2022-10-02T01:27:20.382Z,0
2022-10-02T01:28:20.150Z,0
2022-10-02T01:29:19.149Z,0
2022-10-02T01:30:19.086Z,0
2022-10-02T01:31:19.181Z,0
2022-10-02T01:32:19.093Z,0
2022-10-02T01:33:19.099Z,0
2022-10-02T01:34:19.134Z,0
2022-10-02T01:35:19.094Z,0
2022-10-02T01:36:19.109Z,0
2022-10-02T01:37:19.214Z,0
2022-10-02T01:38:19.095Z,0
2022-10-02T01:39:19.117Z,0
2022-10-02T01:40:19.094Z,0
2022-10-02T01:41:19.088Z,0
2022-10-02T01:42:19.093Z,0
2022-10-02T01:43:19.084Z,0
2022-10-02T01:44:19.130Z,0
2022-10-02T01:45:19.102Z,0
2022-10-02T01:46:19.109Z,0
2022-10-02T01:47:19.163Z,0
2022-10-02T01:48:19.129Z,0
2022-10-02T01:49:19.273Z,0
2022-10-02T01:50:19.105Z,0
2022-10-02T01:51:19.096Z,0
2022-10-02T01:52:19.094Z,0
2022-10-02T01:53:19.358Z,0
2022-10-02T01:54:19.626Z,0
2022-10-02T01:55:19.152Z,0
2022-10-02T01:56:19.398Z,0
2022-10-02T01:57:19.205Z,0
2022-10-02T01:58:19.459Z,0
2022-10-02T01:59:19.096Z,0
2022-10-02T02:00:19.131Z,0
2022-10-02T02:01:19.392Z,0
2022-10-02T02:02:19.182Z,0
2022-10-02T02:03:19.174Z,0
2022-10-02T02:04:19.073Z,0
2022-10-02T02:05:19.372Z,0
2022-10-02T02:06:19.068Z,0
2022-10-02T02:07:19.183Z,0
2022-10-02T02:08:19.082Z,0
2022-10-02T02:09:19.307Z,0
2022-10-02T02:10:19.538Z,0
2022-10-02T02:11:19.379Z,0
2022-10-02T02:12:20.219Z,0
2022-10-02T02:13:19.072Z,0
2022-10-02T02:14:19.352Z,0
2022-10-02T02:15:19.088Z,0
2022-10-02T02:16:19.308Z,0
2022-10-02T02:17:19.517Z,0
2022-10-02T02:18:19.133Z,0
2022-10-02T02:19:19.397Z,0
2022-10-02T02:20:19.092Z,0
2022-10-02T02:21:21.936Z,0
2022-10-02T02:22:19.096Z,0
2022-10-02T02:23:19.084Z,0
2022-10-02T02:24:19.117Z,0
2022-10-02T02:25:19.118Z,0
2022-10-02T02:26:19.075Z,0
2022-10-02T02:27:19.098Z,0
2022-10-02T02:28:19.176Z,0
2022-10-02T02:29:19.100Z,0
2022-10-02T02:30:19.107Z,0
2022-10-02T02:31:19.341Z,0
2022-10-02T02:32:19.114Z,0
2022-10-02T02:33:19.223Z,0
2022-10-02T02:34:19.098Z,0
2022-10-02T02:35:19.124Z,0
2022-10-02T02:36:19.126Z,0
2022-10-02T02:37:19.103Z,0
2022-10-02T02:38:19.099Z,0
2022-10-02T02:39:19.114Z,0
2022-10-02T02:40:19.113Z,0
2022-10-02T02:41:19.094Z,0
2022-10-02T02:42:20.842Z,0
2022-10-02T02:43:19.108Z,0
2022-10-02T02:44:19.091Z,0
2022-10-02T02:45:19.121Z,0
2022-10-02T02:46:19.089Z,0
2022-10-02T02:47:19.091Z,0
2022-10-02T02:48:19.098Z,0
2022-10-02T02:49:19.087Z,0
2022-10-02T02:50:19.150Z,0
2022-10-02T02:51:19.095Z,0
2022-10-02T02:52:19.108Z,0
2022-10-02T02:53:19.101Z,0
2022-10-02T02:54:19.345Z,0
2022-10-02T02:55:19.119Z,0
2022-10-02T02:56:19.092Z,0
2022-10-02T02:57:19.084Z,0
2022-10-02T02:58:19.092Z,0
2022-10-02T02:59:19.111Z,0
2022-10-02T03:00:19.108Z,0
2022-10-02T03:01:19.155Z,0
2022-10-02T03:02:19.140Z,0
2022-10-02T03:03:19.104Z,0
2022-10-02T03:04:19.098Z,0
2022-10-02T03:05:19.238Z,0
2022-10-02T03:06:19.093Z,0
2022-10-02T03:07:19.089Z,0
2022-10-02T03:08:19.104Z,0
2022-10-02T03:09:19.098Z,0
2022-10-02T03:10:19.131Z,0
2022-10-02T03:11:19.102Z,0
2022-10-02T03:12:19.101Z,0
2022-10-02T03:13:19.103Z,0
2022-10-02T03:14:19.109Z,0
2022-10-02T03:15:19.128Z,0
2022-10-02T03:16:19.238Z,0
2022-10-02T03:17:19.085Z,0
2022-10-02T03:18:19.099Z,0
2022-10-02T03:19:19.151Z,0
2022-10-02T03:20:19.107Z,0
2022-10-02T03:21:19.084Z,0
2022-10-02T03:22:19.107Z,0
2022-10-02T03:23:19.101Z,0
2022-10-02T03:24:19.098Z,0
2022-10-02T03:25:19.126Z,0
2022-10-02T03:26:19.109Z,0
2022-10-02T03:27:19.231Z,0
2022-10-02T03:28:31.994Z,0
2022-10-02T03:29:19.093Z,0
2022-10-02T03:30:19.095Z,0
2022-10-02T03:31:19.217Z,0
2022-10-02T03:32:19.098Z,0
2022-10-02T03:33:19.096Z,0
2022-10-02T03:34:19.093Z,0
2022-10-02T03:35:19.092Z,0
2022-10-02T03:36:19.093Z,0
2022-10-02T03:37:19.102Z,0
2022-10-02T03:38:19.092Z,0
2022-10-02T03:39:25.482Z,0
2022-10-02T03:40:19.071Z,0
2022-10-02T03:41:19.066Z,0
2022-10-02T03:42:19.108Z,0
2022-10-02T03:43:19.118Z,0
2022-10-02T03:44:19.163Z,0
2022-10-02T03:45:32.951Z,0
2022-10-02T03:46:19.473Z,0
2022-10-02T03:47:19.694Z,0
2022-10-02T03:48:19.125Z,0
2022-10-02T03:49:19.115Z,0
2022-10-02T03:50:19.093Z,0
2022-10-02T03:51:19.090Z,0
2022-10-02T03:52:19.113Z,0
2022-10-02T03:53:19.092Z,0
2022-10-02T03:54:19.091Z,0
2022-10-02T03:55:19.089Z,0
2022-10-02T03:56:19.095Z,0
2022-10-02T03:57:19.102Z,0
2022-10-02T03:58:19.100Z,0
2022-10-02T03:59:19.118Z,0
2022-10-02T04:00:19.212Z,0
2022-10-02T04:01:19.153Z,0
2022-10-02T04:02:19.097Z,0
2022-10-02T04:03:19.122Z,0
2022-10-02T04:04:19.098Z,0
2022-10-02T04:05:19.092Z,0
2022-10-02T04:06:19.100Z,0
2022-10-02T04:07:19.098Z,0
2022-10-02T04:08:19.098Z,0
2022-10-02T04:09:19.089Z,0
2022-10-02T04:10:19.087Z,0
2022-10-02T04:11:19.105Z,0
2022-10-02T04:12:19.094Z,0
2022-10-02T04:13:19.098Z,0
2022-10-02T04:14:19.095Z,0
2022-10-02T04:15:19.094Z,0
2022-10-02T04:16:19.176Z,0
2022-10-02T04:17:19.110Z,0
2022-10-02T04:18:19.085Z,0
2022-10-02T04:19:19.099Z,0
2022-10-02T04:20:19.103Z,0
2022-10-02T04:21:19.103Z,0
2022-10-02T04:22:19.186Z,0
2022-10-02T04:23:19.099Z,0
2022-10-02T04:24:19.087Z,0
2022-10-02T04:25:19.102Z,0
2022-10-02T04:26:19.091Z,0
2022-10-02T04:27:19.081Z,0
2022-10-02T04:28:19.130Z,0
2022-10-02T04:29:19.095Z,0
2022-10-02T04:30:19.096Z,0
2022-10-02T04:31:19.132Z,0
2022-10-02T04:32:19.109Z,0
2022-10-02T04:33:19.197Z,0
2022-10-02T04:34:19.105Z,0
2022-10-02T04:35:19.088Z,0
2022-10-02T04:36:19.106Z,0
2022-10-02T04:37:19.073Z,0
2022-10-02T04:38:19.067Z,0
2022-10-02T04:39:19.286Z,0
2022-10-02T04:40:19.553Z,0
2022-10-02T04:41:19.882Z,0
2022-10-02T04:42:20.163Z,0
2022-10-02T04:43:20.276Z,0
2022-10-02T04:44:19.122Z,0
2022-10-02T04:45:19.157Z,0
2022-10-02T04:46:19.095Z,0
2022-10-02T04:47:19.106Z,0
2022-10-02T04:48:19.136Z,0
2022-10-02T04:49:19.126Z,0
2022-10-02T04:50:19.095Z,0.23
2022-10-02T04:51:19.087Z,0.23
2022-10-02T04:52:19.089Z,0.23
2022-10-02T04:53:19.108Z,0.46
2022-10-02T04:54:19.104Z,0.46
2022-10-02T04:55:19.164Z,0.69
2022-10-02T04:56:19.103Z,0.69
2022-10-02T04:57:19.482Z,0.92
2022-10-02T04:58:19.151Z,1.15
2022-10-02T04:59:19.117Z,1.38
2022-10-02T05:00:19.225Z,1.61
2022-10-02T05:01:19.150Z,2.07
2022-10-02T05:02:19.209Z,2.3
2022-10-02T05:03:19.468Z,2.53
2022-10-02T05:04:19.187Z,2.99
2022-10-02T05:05:19.536Z,3.91
2022-10-02T05:06:19.739Z,5.06
2022-10-02T05:07:19.106Z,5.75
2022-10-02T05:08:19.306Z,7.13
2022-10-02T05:09:19.120Z,7.59
2022-10-02T05:10:19.096Z,8.51
2022-10-02T05:11:19.107Z,2.76
2022-10-02T05:12:19.103Z,10.83
2022-10-02T05:13:19.161Z,12.5
2022-10-02T05:14:19.117Z,14.17
2022-10-02T05:15:19.116Z,18.33
2022-10-02T05:16:19.185Z,18.33
2022-10-02T05:17:19.088Z,21.67
2022-10-02T05:18:19.139Z,26.67
2022-10-02T05:19:19.111Z,34.17
2022-10-02T05:20:19.456Z,45
2022-10-02T05:21:19.072Z,53.33
2022-10-02T05:22:19.339Z,63.33
2022-10-02T05:23:19.069Z,69.17
2022-10-02T05:24:19.263Z,81.67
2022-10-02T05:25:19.536Z,94.17
2022-10-02T05:26:19.091Z,110.83
2022-10-02T05:27:19.263Z,140
2022-10-02T05:28:19.651Z,169.17
2022-10-02T05:29:19.139Z,190
2022-10-02T05:30:19.096Z,217.5
2022-10-02T05:31:19.246Z,229.17
2022-10-02T05:32:19.481Z,226.67
2022-10-02T05:33:19.256Z,222.5
2022-10-02T05:34:19.165Z,228.33
2022-10-02T05:35:19.412Z,239.17
2022-10-02T05:36:19.096Z,250
2022-10-02T05:37:19.114Z,255
2022-10-02T05:38:19.137Z,263.33
2022-10-02T05:39:19.113Z,260.83
2022-10-02T05:40:19.129Z,277.5
2022-10-02T05:41:19.117Z,299.17
2022-10-02T05:42:19.093Z,318.33
2022-10-02T05:43:19.098Z,335
2022-10-02T05:44:19.084Z,357.5
2022-10-02T05:45:19.121Z,405.83
2022-10-02T05:46:19.141Z,422.5
2022-10-02T05:47:19.350Z,437.5
2022-10-02T05:48:19.107Z,471.67
2022-10-02T05:49:19.106Z,458.33
2022-10-02T05:50:19.152Z,480
2022-10-02T05:51:19.083Z,522.5
2022-10-02T05:52:19.106Z,615.83
2022-10-02T05:53:19.107Z,645
2022-10-02T05:54:19.099Z,744.17
2022-10-02T05:55:19.128Z,799.17
2022-10-02T05:56:19.101Z,836.67
2022-10-02T05:57:19.087Z,871.67
2022-10-02T05:58:19.094Z,843.33
2022-10-02T05:59:19.107Z,797.5
2022-10-02T06:00:19.155Z,723.33
2022-10-02T06:01:19.121Z,747.5
2022-10-02T06:02:19.178Z,680
2022-10-02T06:03:19.098Z,684.17
2022-10-02T06:04:19.092Z,755
2022-10-02T06:05:19.119Z,850.83
2022-10-02T06:06:19.101Z,1030
2022-10-02T06:07:19.093Z,1106.67
2022-10-02T06:08:19.103Z,1299.17
2022-10-02T06:09:20.377Z,1396.67
2022-10-02T06:10:19.096Z,1418.33
2022-10-02T06:11:19.096Z,1518.33
2022-10-02T06:12:19.103Z,1538.33
2022-10-02T06:13:19.192Z,1502.5
2022-10-02T06:14:19.284Z,1425.83
2022-10-02T06:15:19.087Z,1394.17
2022-10-02T06:16:19.208Z,1383.33
2022-10-02T06:17:19.091Z,1485
2022-10-02T06:18:19.092Z,1592.5
2022-10-02T06:19:19.130Z,1624.17
2022-10-02T06:20:19.100Z,1503.33
2022-10-02T06:21:19.089Z,1721.67
2022-10-02T06:22:19.097Z,1930
2022-10-02T06:23:19.096Z,2190.83
2022-10-02T06:24:19.143Z,2377.5
2022-10-02T06:25:19.092Z,2366.67
2022-10-02T06:26:19.086Z,2445.83
2022-10-02T06:27:19.097Z,2283.33
2022-10-02T06:28:19.133Z,2432.5
2022-10-02T06:29:21.552Z,2759.17
2022-10-02T06:30:19.098Z,3001.67
2022-10-02T06:31:19.193Z,2908.33
2022-10-02T06:32:19.100Z,2659.17
2022-10-02T06:33:19.099Z,2276.67
2022-10-02T06:34:19.093Z,2088.33
2022-10-02T06:35:19.092Z,1841.67
2022-10-02T06:36:19.107Z,1536.67
2022-10-02T06:37:19.102Z,1330
2022-10-02T06:38:19.101Z,1057.5
2022-10-02T06:39:19.098Z,1049.17
2022-10-02T06:40:19.088Z,1327.5
2022-10-02T06:41:19.097Z,1440.83
2022-10-02T06:42:19.116Z,1542.5
2022-10-02T06:43:19.092Z,1418.33
2022-10-02T06:44:19.112Z,1479.17
2022-10-02T06:45:19.107Z,1450
2022-10-02T06:46:19.219Z,1364.17
2022-10-02T06:47:19.108Z,1379.17
2022-10-02T06:48:19.088Z,1720.83
2022-10-02T06:49:19.096Z,1795
2022-10-02T06:50:19.098Z,1771.67
2022-10-02T06:51:19.090Z,1944.17
2022-10-02T06:52:19.091Z,1801.67
2022-10-02T06:53:19.066Z,1930
2022-10-02T06:54:19.171Z,2071.67
2022-10-02T06:55:19.114Z,2195.83
2022-10-02T06:56:19.206Z,2500
2022-10-02T06:57:19.097Z,2414.17
2022-10-02T06:58:19.085Z,2008.33
2022-10-02T06:59:19.309Z,1899.17
2022-10-02T07:00:19.514Z,1951.67
2022-10-02T07:01:19.211Z,2025
2022-10-02T07:02:19.449Z,2369.17
2022-10-02T07:03:19.099Z,2954.17
2022-10-02T07:04:19.101Z,3658.33
2022-10-02T07:05:19.100Z,4355.83
2022-10-02T07:06:19.105Z,4983.33
2022-10-02T07:07:19.108Z,5746.67
2022-10-02T07:08:19.097Z,6374.17
2022-10-02T07:09:19.089Z,6447.5
2022-10-02T07:10:19.093Z,6215.83
2022-10-02T07:11:19.091Z,5789.17
2022-10-02T07:12:19.094Z,5130.83
2022-10-02T07:13:19.102Z,4251.67
2022-10-02T07:14:19.104Z,3596.67
2022-10-02T07:15:19.095Z,3325
2022-10-02T07:16:19.144Z,3107.5
2022-10-02T07:17:22.142Z,3303.33
2022-10-02T07:18:19.130Z,3625.83
2022-10-02T07:19:19.091Z,3980.83
2022-10-02T07:20:19.101Z,4225.83
2022-10-02T07:21:19.087Z,4657.5
2022-10-02T07:22:39.889Z,5030.83
2022-10-02T07:23:19.099Z,5423.33
2022-10-02T07:24:19.086Z,4958.33
2022-10-02T07:25:19.091Z,4115.83
2022-10-02T07:26:19.092Z,3744.17
2022-10-02T07:27:19.093Z,3686.67
2022-10-02T07:28:19.195Z,3725
2022-10-02T07:29:19.096Z,4606.67
2022-10-02T07:30:19.103Z,5983.33
2022-10-02T07:31:19.168Z,6722.5
2022-10-02T07:32:19.100Z,6652.5
2022-10-02T07:33:19.095Z,5751.67
2022-10-02T07:34:19.110Z,5806.67
2022-10-02T07:35:19.097Z,5337.5
2022-10-02T07:36:19.098Z,3674.17
2022-10-02T07:37:19.106Z,2665.83
2022-10-02T07:38:19.119Z,2499.17
2022-10-02T07:39:19.151Z,2664.17
2022-10-02T07:40:19.103Z,1911.67
2022-10-02T07:41:19.125Z,1806.67
2022-10-02T07:42:19.111Z,1867.5
2022-10-02T07:43:19.157Z,1671.67
2022-10-02T07:44:19.090Z,1866.67
2022-10-02T07:45:19.089Z,1833.33
2022-10-02T07:46:19.118Z,2195
2022-10-02T07:47:19.084Z,2439.17
2022-10-02T07:48:19.097Z,2505
2022-10-02T07:49:19.091Z,2758.33
2022-10-02T07:50:19.105Z,2548.33
2022-10-02T07:51:21.024Z,2950.83
2022-10-02T07:52:19.212Z,2813.33
2022-10-02T07:53:19.109Z,3307.5
2022-10-02T07:54:19.087Z,3586.67
2022-10-02T07:55:19.167Z,3473.33
2022-10-02T07:56:19.392Z,3833.33
2022-10-02T07:57:19.438Z,4353.33
2022-10-02T07:58:19.610Z,4737.5
2022-10-02T07:59:19.113Z,5445.83
2022-10-02T08:00:19.073Z,6027.5
2022-10-02T08:01:19.167Z,6646.67
2022-10-02T08:02:19.195Z,7239.17
2022-10-02T08:03:19.097Z,7282.5
2022-10-02T08:04:19.163Z,7421.67
2022-10-02T08:05:19.096Z,7498.33
2022-10-02T08:06:19.231Z,7296.67
2022-10-02T08:07:19.070Z,7516.67
2022-10-02T08:08:19.154Z,7031.67
2022-10-02T08:09:19.125Z,5916.67
2022-10-02T08:10:19.413Z,5581.67
2022-10-02T08:11:19.088Z,5349.17
2022-10-02T08:12:19.801Z,4780
2022-10-02T08:13:20.120Z,3970.83
2022-10-02T08:14:19.097Z,4340.83
2022-10-02T08:15:19.108Z,4848.33
2022-10-02T08:16:19.199Z,4835.83
2022-10-02T08:17:19.113Z,5807.5
2022-10-02T08:18:33.480Z,5371.67
2022-10-02T08:19:19.081Z,5378.33
2022-10-02T08:20:19.120Z,5881.67
2022-10-02T08:21:19.097Z,5441.67
2022-10-02T08:22:19.128Z,6341.67
2022-10-02T08:23:19.085Z,6449.17
2022-10-02T08:24:19.087Z,6464.17
2022-10-02T08:25:19.090Z,6894.17
2022-10-02T08:26:19.139Z,5885
2022-10-02T08:27:19.127Z,7032.5
2022-10-02T08:28:19.248Z,8090.83
2022-10-02T08:29:19.069Z,9480
2022-10-02T08:30:19.090Z,10679.17
2022-10-02T08:31:19.167Z,10319.17
2022-10-02T08:32:19.084Z,9111.67
2022-10-02T08:33:19.173Z,9573.33
2022-10-02T08:34:19.373Z,10319.17
2022-10-02T08:35:19.166Z,10388.33
2022-10-02T08:36:19.193Z,11405.83
2022-10-02T08:37:19.514Z,11255.83
2022-10-02T08:38:19.074Z,10646.67
2022-10-02T08:39:19.454Z,9431.67
2022-10-02T08:40:19.170Z,9575
2022-10-02T08:41:19.439Z,10983.33
2022-10-02T08:42:19.177Z,11156.67
2022-10-02T08:43:19.070Z,9073.33
2022-10-02T08:44:19.173Z,9289.17
2022-10-02T08:45:19.196Z,9678.33
2022-10-02T08:46:19.472Z,9070.83
2022-10-02T08:47:19.131Z,9493.33
2022-10-02T08:48:19.095Z,9427.5
2022-10-02T08:49:19.344Z,8694.17
2022-10-02T08:50:19.095Z,9320.83
2022-10-02T08:51:19.113Z,9570.83
2022-10-02T08:52:19.251Z,9820
2022-10-02T08:53:19.081Z,9520.83
2022-10-02T08:54:19.095Z,8927.5
2022-10-02T08:55:19.098Z,8575.83
2022-10-02T08:56:20.223Z,8195
2022-10-02T08:57:19.253Z,7557.5
2022-10-02T08:58:19.113Z,7159.17
2022-10-02T08:59:19.115Z,6980.83
2022-10-02T09:00:19.095Z,7840
2022-10-02T09:01:19.187Z,7873.33
2022-10-02T09:02:19.468Z,7706.67
2022-10-02T09:03:19.098Z,7163.33
2022-10-02T09:04:19.110Z,7705.83
2022-10-02T09:05:19.094Z,8215.83
2022-10-02T09:06:19.091Z,8808.33
2022-10-02T09:07:19.123Z,9376.67
2022-10-02T09:08:19.107Z,9447.5
2022-10-02T09:09:19.098Z,8500
2022-10-02T09:10:19.083Z,7403.33
2022-10-02T09:11:19.099Z,8862.5
2022-10-02T09:12:19.116Z,9898.33
2022-10-02T09:13:19.117Z,9696.67
2022-10-02T09:14:19.097Z,10138.33
2022-10-02T09:15:19.230Z,9992.5
2022-10-02T09:16:19.171Z,9545.83
2022-10-02T09:17:19.093Z,10261.67
2022-10-02T09:18:19.174Z,12022.5
2022-10-02T09:19:19.104Z,10370
2022-10-02T09:20:19.083Z,11550.83
2022-10-02T09:21:19.100Z,10082.5
2022-10-02T09:22:19.127Z,10720
2022-10-02T09:23:19.089Z,12765
2022-10-02T09:24:19.123Z,13441.67
2022-10-02T09:25:19.109Z,14417.5
2022-10-02T09:26:19.206Z,14261.67
2022-10-02T09:27:19.104Z,13700
2022-10-02T09:28:19.160Z,12925.83
2022-10-02T09:29:19.096Z,14083.33
2022-10-02T09:30:19.087Z,13954.17
2022-10-02T09:31:19.182Z,13725
2022-10-02T09:32:19.111Z,13104.17
2022-10-02T09:33:19.094Z,12610.83
2022-10-02T09:34:19.103Z,12617.5
2022-10-02T09:35:19.108Z,13487.5
2022-10-02T09:36:19.102Z,13521.67
2022-10-02T09:37:19.190Z,13981.67
2022-10-02T09:38:19.100Z,13320.83
2022-10-02T09:39:19.087Z,12211.67
2022-10-02T09:40:19.099Z,11974.17
2022-10-02T09:41:19.085Z,9832.5
2022-10-02T09:42:19.095Z,11471.67
2022-10-02T09:43:19.117Z,10808.33
2022-10-02T09:44:19.097Z,9925.83
2022-10-02T09:45:19.121Z,11043.33
2022-10-02T09:46:19.154Z,11740.83
2022-10-02T09:47:19.122Z,10535.83
2022-10-02T09:48:19.111Z,10860
2022-10-02T09:49:19.089Z,12255.83
2022-10-02T09:50:19.113Z,17150
2022-10-02T09:51:19.093Z,17474.17
2022-10-02T09:52:19.095Z,12323.33
2022-10-02T09:53:19.093Z,19240
2022-10-02T09:54:19.118Z,16475.83
2022-10-02T09:55:19.098Z,15779.17
2022-10-02T09:56:19.094Z,15945
2022-10-02T09:57:19.097Z,15250.83
2022-10-02T09:58:19.095Z,14525
2022-10-02T09:59:19.220Z,14011.67
2022-10-02T10:00:19.089Z,14846.67
2022-10-02T10:01:19.162Z,14291.67
2022-10-02T10:02:22.304Z,13728.33
2022-10-02T10:03:19.083Z,12646.67
2022-10-02T10:04:19.095Z,12445.83
2022-10-02T10:05:19.096Z,11279.17
2022-10-02T10:06:19.086Z,11576.67
2022-10-02T10:07:19.221Z,13059.17
2022-10-02T10:08:19.093Z,12040.83
2022-10-02T10:09:19.200Z,14430.83
2022-10-02T10:10:19.072Z,13458.33
2022-10-02T10:11:19.068Z,12745
2022-10-02T10:12:19.114Z,12655.83
2022-10-02T10:13:19.089Z,11186.67
2022-10-02T10:14:19.157Z,10769.17
2022-10-02T10:15:19.350Z,10807.5
2022-10-02T10:16:19.682Z,9220.83
2022-10-02T10:17:19.318Z,6560.83
2022-10-02T10:18:19.103Z,7494.17
2022-10-02T10:19:19.094Z,8540
2022-10-02T10:20:19.098Z,8573.33
2022-10-02T10:21:19.105Z,9263.33
2022-10-02T10:22:19.300Z,10046.67
2022-10-02T10:23:19.099Z,9443.33
2022-10-02T10:24:19.090Z,10909.17
2022-10-02T10:25:19.079Z,12590
2022-10-02T10:26:19.095Z,13998.33
2022-10-02T10:27:19.101Z,14864.17
2022-10-02T10:28:19.133Z,16303.33
2022-10-02T10:29:19.106Z,20010
2022-10-02T10:30:19.114Z,22354.17
2022-10-02T10:31:19.146Z,18070.83
2022-10-02T10:32:19.324Z,13199.17
2022-10-02T10:33:19.101Z,13319.17
2022-10-02T10:34:19.107Z,13765
2022-10-02T10:35:19.156Z,14214.17
2022-10-02T10:36:19.089Z,17042.5
2022-10-02T10:37:19.113Z,16165
2022-10-02T10:38:19.096Z,16492.5
2022-10-02T10:39:19.099Z,17995.83
2022-10-02T10:40:19.097Z,20521.67
2022-10-02T10:41:19.101Z,15492.5
2022-10-02T10:42:19.105Z,12612.5
2022-10-02T10:43:19.100Z,12095
2022-10-02T10:44:19.089Z,10841.67
2022-10-02T10:45:19.090Z,8344.17
2022-10-02T10:46:19.204Z,6931.67
2022-10-02T10:47:19.096Z,6540
2022-10-02T10:48:19.095Z,9100
2022-10-02T10:49:19.098Z,12623.33
2022-10-02T10:50:19.087Z,15175
2022-10-02T10:51:19.088Z,16344.17
2022-10-02T10:52:19.100Z,21074.17
2022-10-02T10:53:19.102Z,21108.33
2022-10-02T10:54:19.104Z,22525
2022-10-02T10:55:19.296Z,19730.83
2022-10-02T10:56:19.104Z,13224.17
2022-10-02T10:57:19.103Z,18235
2022-10-02T10:58:19.101Z,12694.17
2022-10-02T10:59:23.087Z,11413.33
2022-10-02T11:00:19.124Z,12072.5
2022-10-02T11:01:19.159Z,11786.67
2022-10-02T11:02:19.135Z,18906.67
2022-10-02T11:03:19.092Z,10071.67
2022-10-02T11:04:19.107Z,9767.5
2022-10-02T11:05:19.111Z,18396.67
2022-10-02T11:06:19.091Z,21737.5
2022-10-02T11:07:19.099Z,20942.5
2022-10-02T11:08:19.073Z,13755.83
2022-10-02T11:09:19.068Z,9872.5
2022-10-02T11:10:19.164Z,10178.33
2022-10-02T11:11:19.065Z,10661.67
2022-10-02T11:12:19.227Z,8180.83
2022-10-02T11:13:19.075Z,6676.67
2022-10-02T11:14:19.204Z,6556.67
2022-10-02T11:15:19.637Z,8058.33
2022-10-02T11:16:20.087Z,6320.83
2022-10-02T11:17:19.154Z,5402.5
2022-10-02T11:18:19.431Z,5058.33
2022-10-02T11:19:21.583Z,6819.17
2022-10-02T11:20:19.098Z,9601.67
2022-10-02T11:21:19.093Z,16421.67
2022-10-02T11:22:19.091Z,14648.33
2022-10-02T11:23:19.126Z,9232.5
2022-10-02T11:24:19.099Z,13835.83
2022-10-02T11:25:19.091Z,14111.67
2022-10-02T11:26:19.111Z,14382.5
2022-10-02T11:27:19.094Z,10519.17
2022-10-02T11:28:19.227Z,23944.17
2022-10-02T11:29:19.098Z,20109.17
2022-10-02T11:30:19.108Z,14045.83
2022-10-02T11:31:19.145Z,22232.5
2022-10-02T11:32:19.096Z,14956.67
2022-10-02T11:33:19.126Z,11756.67
2022-10-02T11:34:19.100Z,8079.17
2022-10-02T11:35:19.070Z,10862.5
2022-10-02T11:36:19.201Z,16402.5
2022-10-02T11:37:19.147Z,9458.33
2022-10-02T11:38:19.113Z,19885.83
2022-10-02T11:39:19.201Z,14694.17
2022-10-02T11:40:19.127Z,9576.67
2022-10-02T11:41:19.173Z,11488.33
2022-10-02T11:42:19.069Z,19575
2022-10-02T11:43:19.179Z,11648.33
2022-10-02T11:44:19.071Z,17269.17
2022-10-02T11:45:19.293Z,13259.17
2022-10-02T11:46:19.598Z,11595.83
2022-10-02T11:47:19.121Z,12172.5
2022-10-02T11:48:19.567Z,10290
2022-10-02T11:49:19.149Z,13011.67
2022-10-02T11:50:19.493Z,15233.33
2022-10-02T11:51:19.208Z,15907.5
2022-10-02T11:52:19.503Z,16298.33
2022-10-02T11:53:19.081Z,17331.67
2022-10-02T11:54:19.216Z,15440.83
2022-10-02T11:55:19.543Z,16700.83
2022-10-02T11:56:19.098Z,18656.67
2022-10-02T11:57:19.268Z,20982.5
2022-10-02T11:58:19.554Z,22868.33
2022-10-02T11:59:19.834Z,23638.33
2022-10-02T12:00:19.098Z,24183.33
2022-10-02T12:01:19.164Z,22994.17
2022-10-02T12:02:19.184Z,23950
2022-10-02T12:03:19.146Z,26683.33
2022-10-02T12:04:19.291Z,23446.67
2022-10-02T12:05:19.108Z,28814.17
2022-10-02T12:06:19.101Z,29640.83
2022-10-02T12:07:19.100Z,29305.83
2022-10-02T12:08:19.104Z,32150
2022-10-02T12:09:19.117Z,31540.83
2022-10-02T12:10:19.096Z,17389.17
2022-10-02T12:11:19.207Z,13970.83
2022-10-02T12:12:19.094Z,12247.5
2022-10-02T12:13:19.093Z,10500.83
2022-10-02T12:14:19.123Z,8768.33
2022-10-02T12:15:19.108Z,9870.83
2022-10-02T12:16:19.228Z,9415.83
2022-10-02T12:17:19.109Z,8611.67
2022-10-02T12:18:21.769Z,7660.83
2022-10-02T12:19:19.134Z,6719.17
2022-10-02T12:20:19.079Z,5889.17
2022-10-02T12:21:19.111Z,6320.83
2022-10-02T12:22:19.184Z,8041.67
2022-10-02T12:23:19.107Z,9606.67
2022-10-02T12:24:19.130Z,10570.83
2022-10-02T12:25:19.092Z,11877.5
2022-10-02T12:26:19.098Z,20027.5
2022-10-02T12:27:19.096Z,32350
2022-10-02T12:28:19.160Z,34213.33
2022-10-02T12:29:19.116Z,19535.83
2022-10-02T12:30:19.139Z,16745
2022-10-02T12:31:19.171Z,27344.17
2022-10-02T12:32:19.112Z,24394.17
2022-10-02T12:33:19.100Z,22539.17
2022-10-02T12:34:19.110Z,18450
2022-10-02T12:35:19.118Z,11030
2022-10-02T12:36:19.085Z,10045.83
2022-10-02T12:37:19.089Z,9084.17
2022-10-02T12:38:19.092Z,9477.5
2022-10-02T12:39:21.971Z,11426.67
2022-10-02T12:40:19.130Z,13161.67
2022-10-02T12:41:19.106Z,12500
2022-10-02T12:42:19.100Z,19654.17
2022-10-02T12:43:19.113Z,21003.33
2022-10-02T12:44:19.115Z,19180
2022-10-02T12:45:19.107Z,19931.67
2022-10-02T12:46:19.123Z,23356.67
2022-10-02T12:47:19.095Z,20853.33
2022-10-02T12:48:19.087Z,19750.83
2022-10-02T12:49:19.086Z,22613.33
2022-10-02T12:50:19.255Z,23772.5
2022-10-02T12:51:19.124Z,12085.83
2022-10-02T12:52:19.152Z,12765.83
2022-10-02T12:53:19.098Z,8900.83
2022-10-02T12:54:19.096Z,8455.83
2022-10-02T12:55:19.207Z,8915
2022-10-02T12:56:19.222Z,9237.5
2022-10-02T12:57:19.175Z,10134.17
2022-10-02T12:58:19.121Z,9433.33
2022-10-02T12:59:19.094Z,10774.17
2022-10-02T13:00:19.094Z,12122.5
2022-10-02T13:01:19.136Z,11574.17
2022-10-02T13:02:19.179Z,10198.33
2022-10-02T13:03:19.203Z,9537.5
2022-10-02T13:04:19.090Z,8699.17